createdAt,value
2022-09-18T00:00:00.291Z,54.11
2022-09-18T00:02:27.216Z,54.00
2022-09-18T00:04:54.264Z,53.74
2022-09-18T00:07:21.147Z,53.67
2022-09-18T00:09:54.815Z,54.12
2022-09-18T00:12:24.139Z,53.91
2022-09-18T00:14:54.118Z,54.27
2022-09-18T00:17:22.264Z,53.92
2022-09-18T00:19:49.258Z,54.11
2022-09-18T00:22:16.216Z,53.72
2022-09-18T00:24:44.364Z,54.27
2022-09-18T00:27:17.031Z,53.98
2022-09-18T00:29:46.559Z,53.94
2022-09-18T00:32:13.589Z,53.90
2022-09-18T00:34:41.590Z,53.90
2022-09-18T00:37:11.191Z,54.21
2022-09-18T00:39:45.786Z,53.96
2022-09-18T00:42:14.697Z,54.16
2022-09-18T00:45:03.147Z,53.85
2022-09-18T00:47:42.326Z,53.87
2022-09-18T00:50:20.924Z,53.87
2022-09-18T00:52:56.965Z,54.05
2022-09-18T00:55:33.999Z,53.83
2022-09-18T00:58:06.675Z,54.12
2022-09-18T01:00:33.746Z,53.81
2022-09-18T01:03:13.749Z,54.16
2022-09-18T01:06:12.734Z,54.03
2022-09-18T01:09:33.733Z,54.41
2022-09-18T01:12:53.798Z,54.37
2022-09-18T01:15:52.657Z,54.16
2022-09-18T01:18:29.686Z,54.24
2022-09-18T01:21:16.449Z,54.13
2022-09-18T01:24:22.998Z,53.91
2022-09-18T01:27:19.844Z,54.03
2022-09-18T01:30:11.329Z,54.19
2022-09-18T01:32:48.041Z,54.01
2022-09-18T01:35:41.586Z,53.78
2022-09-18T01:38:43.491Z,54.04
2022-09-18T01:41:15.664Z,54.36
2022-09-18T01:43:57.625Z,53.91
2022-09-18T01:46:46.291Z,54.33
2022-09-18T01:49:35.636Z,54.40
2022-09-18T01:52:05.707Z,54.22
2022-09-18T01:54:40.649Z,54.28
2022-09-18T01:57:33.192Z,54.35
2022-09-18T02:00:16.355Z,54.21
2022-09-18T02:03:33.082Z,54.47
2022-09-18T02:06:14.712Z,54.42
2022-09-18T02:09:06.101Z,54.11
2022-09-18T02:11:49.701Z,54.32
2022-09-18T02:14:40.852Z,54.45
2022-09-18T02:17:24.263Z,54.52
2022-09-18T02:20:27.105Z,54.21
2022-09-18T02:23:06.779Z,54.37
2022-09-18T02:26:10.512Z,54.21
2022-09-18T02:28:58.174Z,54.10
2022-09-18T02:31:33.536Z,54.21
2022-09-18T02:34:05.445Z,54.38
2022-09-18T02:36:58.954Z,54.54
2022-09-18T02:39:45.473Z,54.38
2022-09-18T02:42:31.026Z,54.56
2022-09-18T02:45:17.240Z,54.43
2022-09-18T02:48:09.552Z,54.35
2022-09-18T02:51:01.030Z,54.55
2022-09-18T02:54:01.586Z,54.51
2022-09-18T02:56:41.759Z,54.79
2022-09-18T02:59:45.084Z,54.43
2022-09-18T03:02:14.177Z,54.75
2022-09-18T03:04:44.390Z,54.56
2022-09-18T03:07:16.549Z,54.82
2022-09-18T03:09:43.967Z,54.67
2022-09-18T03:12:17.491Z,54.39
2022-09-18T03:14:50.904Z,54.70
2022-09-18T03:17:19.681Z,54.45
2022-09-18T03:19:56.368Z,54.56
2022-09-18T03:22:25.172Z,54.36
2022-09-18T03:24:59.788Z,54.45
2022-09-18T03:27:28.849Z,54.38
2022-09-18T03:30:00.746Z,54.79
2022-09-18T03:32:27.642Z,54.37
2022-09-18T03:35:00.439Z,54.36
2022-09-18T03:37:36.397Z,54.67
2022-09-18T03:40:05.457Z,54.20
2022-09-18T03:42:36.644Z,54.71
2022-09-18T03:45:13.249Z,54.33
2022-09-18T03:47:44.736Z,54.72
2022-09-18T03:50:12.383Z,54.64
2022-09-18T03:52:40.008Z,54.72
2022-09-18T03:55:09.006Z,54.80
2022-09-18T03:57:38.490Z,54.54
2022-09-18T04:00:07.675Z,54.94
2022-09-18T04:02:39.402Z,54.63
2022-09-18T04:05:06.834Z,54.76
2022-09-18T04:07:44.156Z,54.90
2022-09-18T04:10:11.322Z,54.69
2022-09-18T04:12:42.476Z,54.86
2022-09-18T04:15:16.806Z,54.61
2022-09-18T04:17:53.083Z,54.81
2022-09-18T04:20:25.943Z,54.99
2022-09-18T04:22:54.544Z,54.63
2022-09-18T04:25:27.533Z,54.72
2022-09-18T04:28:03.186Z,55.12
2022-09-18T04:30:30.087Z,54.98
2022-09-18T04:32:56.888Z,54.92
2022-09-18T04:35:24.086Z,55.05
2022-09-18T04:37:51.007Z,54.76
2022-09-18T04:40:17.994Z,55.03
2022-09-18T04:42:44.816Z,55.00
2022-09-18T04:45:12.051Z,55.00
2022-09-18T04:47:38.952Z,55.08
2022-09-18T04:50:08.728Z,54.83
2022-09-18T04:52:35.919Z,55.10
2022-09-18T04:55:03.406Z,55.04
2022-09-18T04:57:30.285Z,55.08
2022-09-18T04:59:57.398Z,54.90
2022-09-18T05:02:24.898Z,54.95
2022-09-18T05:04:51.818Z,54.92
2022-09-18T05:07:18.748Z,55.20
2022-09-18T05:09:45.883Z,55.06
2022-09-18T05:12:13.022Z,54.90
2022-09-18T05:14:39.982Z,54.95
2022-09-18T05:17:06.979Z,54.97
2022-09-18T05:19:33.891Z,55.19
2022-09-18T05:22:00.798Z,54.78
2022-09-18T05:24:27.709Z,55.22
2022-09-18T05:26:54.560Z,55.33
2022-09-18T05:29:21.605Z,55.22
2022-09-18T05:31:48.570Z,55.14
2022-09-18T05:34:15.548Z,55.37
2022-09-18T05:36:42.367Z,55.11
2022-09-18T05:39:10.036Z,54.96
2022-09-18T05:41:39.015Z,54.97
2022-09-18T05:44:06.109Z,55.06
2022-09-18T05:46:33.031Z,55.04
2022-09-18T05:49:00.163Z,55.13
2022-09-18T05:51:26.962Z,55.38
2022-09-18T05:53:53.905Z,55.41
2022-09-18T05:56:20.803Z,54.95
2022-09-18T05:58:47.669Z,55.02
2022-09-18T06:01:14.675Z,55.09
2022-09-18T06:03:42.020Z,55.40
2022-09-18T06:06:08.967Z,55.25
2022-09-18T06:08:36.385Z,55.19
2022-09-18T06:11:03.914Z,54.92
2022-09-18T06:13:34.819Z,55.36
2022-09-18T06:16:02.112Z,55.10
2022-09-18T06:18:28.990Z,55.39
2022-09-18T06:20:58.065Z,55.18
2022-09-18T06:23:27.740Z,55.10
2022-09-18T06:26:03.067Z,54.97
2022-09-18T06:28:34.208Z,55.17
2022-09-18T06:31:03.602Z,55.19
2022-09-18T06:33:30.578Z,55.29
2022-09-18T06:35:58.144Z,55.16
2022-09-18T06:38:25.183Z,55.36
2022-09-18T06:40:55.083Z,55.47
2022-09-18T06:43:22.148Z,55.25
2022-09-18T06:45:56.157Z,55.29
2022-09-18T06:48:26.969Z,55.42
2022-09-18T06:50:54.641Z,55.30
2022-09-18T06:53:22.523Z,55.41
2022-09-18T06:55:50.535Z,55.46
2022-09-18T06:58:19.344Z,55.45
2022-09-18T07:00:46.851Z,55.37
2022-09-18T07:03:14.042Z,55.69
2022-09-18T07:05:43.134Z,55.43
2022-09-18T07:08:10.377Z,55.35
2022-09-18T07:10:38.026Z,55.09
2022-09-18T07:13:05.261Z,55.30
2022-09-18T07:15:32.439Z,55.21
2022-09-18T07:18:01.009Z,55.26
2022-09-18T07:20:29.485Z,55.54
2022-09-18T07:23:01.399Z,55.53
2022-09-18T07:25:31.376Z,55.69
2022-09-18T07:28:07.962Z,55.64
2022-09-18T07:30:36.279Z,55.58
2022-09-18T07:33:04.765Z,55.34
2022-09-18T07:35:32.367Z,55.41
2022-09-18T07:38:06.146Z,55.54
2022-09-18T07:40:33.547Z,55.47
2022-09-18T07:43:10.863Z,55.50
2022-09-18T07:45:37.921Z,55.35
2022-09-18T07:48:06.351Z,55.41
2022-09-18T07:50:33.818Z,55.30
2022-09-18T07:53:05.590Z,55.30
2022-09-18T07:55:35.598Z,55.49
2022-09-18T07:58:05.324Z,55.21
2022-09-18T08:00:35.108Z,55.25
2022-09-18T08:03:22.362Z,55.19
2022-09-18T08:05:49.271Z,55.24
2022-09-18T08:08:16.268Z,55.72
2022-09-18T08:10:44.906Z,55.72
2022-09-18T08:13:12.725Z,55.40
2022-09-18T08:15:41.583Z,55.60
2022-09-18T08:18:09.782Z,55.32
2022-09-18T08:20:36.675Z,54.98
2022-09-18T08:23:05.421Z,55.43
2022-09-18T08:25:33.171Z,55.67
2022-09-18T08:28:01.740Z,56.02
2022-09-18T08:30:29.704Z,55.37
2022-09-18T08:33:01.181Z,55.63
2022-09-18T08:35:29.119Z,55.73
2022-09-18T08:37:56.174Z,55.56
2022-09-18T08:40:46.150Z,55.82
2022-09-18T08:43:47.409Z,55.47
2022-09-18T08:46:21.222Z,55.40
2022-09-18T08:48:55.072Z,55.67
2022-09-18T08:51:37.656Z,55.81
2022-09-18T08:54:19.832Z,55.56
2022-09-18T08:56:47.487Z,55.63
2022-09-18T08:59:39.809Z,55.67
2022-09-18T09:02:28.399Z,55.53
2022-09-18T09:05:01.409Z,55.64
2022-09-18T09:07:53.879Z,55.57
2022-09-18T09:10:32.917Z,55.84
2022-09-18T09:13:24.759Z,55.91
2022-09-18T09:16:05.406Z,55.60
2022-09-18T09:18:45.409Z,55.53
2022-09-18T09:21:17.857Z,55.75
2022-09-18T09:24:13.736Z,55.58
2022-09-18T09:26:41.562Z,55.67
2022-09-18T09:29:40.003Z,55.75
2022-09-18T09:32:28.580Z,55.91
2022-09-18T09:35:21.782Z,55.92
2022-09-18T09:37:51.302Z,55.76
2022-09-18T09:40:45.202Z,56.04
2022-09-18T09:43:20.181Z,55.90
2022-09-18T09:45:56.461Z,55.95
2022-09-18T09:49:12.978Z,56.11
2022-09-18T09:52:09.101Z,55.90
2022-09-18T09:54:36.627Z,55.69
2022-09-18T09:57:20.083Z,56.09
2022-09-18T10:00:10.822Z,55.76
2022-09-18T10:02:56.538Z,55.84
2022-09-18T10:05:23.602Z,56.04
2022-09-18T10:08:02.142Z,55.76
2022-09-18T10:10:49.478Z,55.99
2022-09-18T10:13:28.113Z,55.91
2022-09-18T10:16:03.419Z,55.70
2022-09-18T10:18:42.187Z,55.80
2022-09-18T10:21:21.070Z,55.73
2022-09-18T10:24:25.750Z,55.95
2022-09-18T10:27:01.687Z,55.69
2022-09-18T10:29:30.894Z,55.97
2022-09-18T10:32:01.668Z,55.83
2022-09-18T10:34:39.898Z,55.47
2022-09-18T10:37:28.996Z,55.79
2022-09-18T10:39:57.940Z,55.94
2022-09-18T10:42:27.574Z,55.70
2022-09-18T10:45:02.853Z,55.64
2022-09-18T10:47:35.358Z,55.78
2022-09-18T10:50:11.385Z,56.07
2022-09-18T10:52:40.146Z,55.51
2022-09-18T10:55:09.774Z,55.78
2022-09-18T10:57:45.529Z,55.87
2022-09-18T11:00:12.764Z,56.17
2022-09-18T11:02:45.079Z,56.20
2022-09-18T11:05:20.602Z,55.83
2022-09-18T11:07:53.442Z,55.72
2022-09-18T11:10:23.562Z,56.07
2022-09-18T11:13:02.531Z,55.85
2022-09-18T11:15:32.107Z,55.87
2022-09-18T11:18:02.471Z,55.93
2022-09-18T11:20:54.102Z,55.71
2022-09-18T11:23:29.864Z,56.23
2022-09-18T11:26:10.833Z,56.07
2022-09-18T11:28:39.716Z,55.95
2022-09-18T11:31:19.821Z,56.14
2022-09-18T11:33:57.605Z,56.43
2022-09-18T11:36:31.569Z,55.93
2022-09-18T11:39:01.489Z,55.84
2022-09-18T11:41:40.823Z,55.84
2022-09-18T11:44:16.642Z,55.87
2022-09-18T11:47:22.602Z,55.86
2022-09-18T11:49:55.658Z,55.89
2022-09-18T11:52:33.672Z,56.25
2022-09-18T11:55:09.883Z,56.23
2022-09-18T11:57:48.436Z,56.18
2022-09-18T12:00:21.520Z,56.37
2022-09-18T12:03:07.243Z,56.16
2022-09-18T12:05:47.513Z,56.44
2022-09-18T12:08:47.992Z,56.39
2022-09-18T12:11:14.923Z,55.93
2022-09-18T12:13:54.140Z,56.72
2022-09-18T12:16:31.697Z,56.56
2022-09-18T12:19:07.877Z,56.71
2022-09-18T12:21:55.125Z,56.35
2022-09-18T12:24:22.129Z,56.28
2022-09-18T12:27:33.568Z,56.71
2022-09-18T12:30:08.151Z,56.37
2022-09-18T12:33:06.873Z,56.36
2022-09-18T12:35:49.420Z,56.58
2022-09-18T12:38:31.388Z,56.74
2022-09-18T12:41:20.587Z,56.18
2022-09-18T12:44:28.620Z,56.52
2022-09-18T12:46:59.896Z,56.75
2022-09-18T12:49:44.996Z,56.40
2022-09-18T12:52:30.528Z,56.66
2022-09-18T12:55:25.445Z,56.39
2022-09-18T12:58:13.666Z,56.58
2022-09-18T13:00:46.659Z,56.72
2022-09-18T13:03:19.566Z,56.41
2022-09-18T13:05:54.063Z,56.65
2022-09-18T13:08:49.423Z,56.58
2022-09-18T13:11:34.573Z,56.55
2022-09-18T13:14:21.841Z,56.51
2022-09-18T13:16:51.909Z,56.44
2022-09-18T13:19:31.513Z,56.61
2022-09-18T13:22:04.594Z,56.44
2022-09-18T13:24:34.878Z,56.21
2022-09-18T13:27:05.208Z,56.51
2022-09-18T13:29:53.528Z,56.39
2022-09-18T13:32:41.586Z,56.46
2022-09-18T13:35:14.573Z,56.65
2022-09-18T13:37:42.976Z,56.68
2022-09-18T13:40:38.464Z,56.65
2022-09-18T13:43:20.697Z,56.76
2022-09-18T13:45:47.925Z,56.45
2022-09-18T13:48:26.350Z,56.91
2022-09-18T13:51:17.643Z,56.63
2022-09-18T13:53:45.217Z,56.64
2022-09-18T13:56:17.255Z,56.63
2022-09-18T13:58:56.046Z,56.40
2022-09-18T14:01:41.253Z,56.49
2022-09-18T14:04:39.217Z,56.65
2022-09-18T14:07:18.335Z,56.43
2022-09-18T14:10:04.585Z,56.52
2022-09-18T14:12:35.987Z,56.70
2022-09-18T14:15:20.949Z,56.43
2022-09-18T14:18:15.415Z,56.72
2022-09-18T14:20:49.470Z,56.48
2022-09-18T14:23:35.550Z,56.54
2022-09-18T14:26:38.572Z,56.76
2022-09-18T14:29:11.266Z,56.53
2022-09-18T14:31:47.897Z,56.64
2022-09-18T14:34:21.610Z,56.75
2022-09-18T14:36:58.753Z,56.73
2022-09-18T14:39:30.893Z,56.83
2022-09-18T14:42:00.308Z,56.77
2022-09-18T14:44:29.294Z,56.46
2022-09-18T14:46:57.481Z,56.55
2022-09-18T14:49:43.522Z,56.90
2022-09-18T14:52:22.859Z,56.87
2022-09-18T14:54:53.446Z,56.66
2022-09-18T14:57:24.478Z,57.01
2022-09-18T14:59:54.421Z,56.87
2022-09-18T15:02:33.182Z,56.75
2022-09-18T15:05:03.086Z,56.92
2022-09-18T15:07:30.613Z,56.92
2022-09-18T15:10:01.445Z,57.11
2022-09-18T15:12:30.693Z,57.01
2022-09-18T15:14:59.018Z,56.91
2022-09-18T15:17:28.331Z,56.79
2022-09-18T15:20:01.842Z,56.79
2022-09-18T15:22:29.995Z,57.07
2022-09-18T15:25:00.884Z,56.97
2022-09-18T15:27:29.520Z,57.24
2022-09-18T15:30:02.746Z,57.05
2022-09-18T15:32:38.865Z,56.84
2022-09-18T15:35:08.915Z,56.89
2022-09-18T15:37:38.325Z,56.85
2022-09-18T15:40:16.921Z,57.26
2022-09-18T15:42:58.178Z,57.20
2022-09-18T15:45:28.754Z,56.81
2022-09-18T15:47:56.427Z,57.22
2022-09-18T15:50:36.230Z,57.39
2022-09-18T15:53:15.071Z,57.26
2022-09-18T15:56:03.267Z,57.26
2022-09-18T15:58:35.700Z,57.23
2022-09-18T16:01:08.412Z,57.24
2022-09-18T16:03:37.026Z,57.17
2022-09-18T16:06:07.746Z,57.48
2022-09-18T16:08:37.639Z,57.12
2022-09-18T16:11:06.640Z,57.22
2022-09-18T16:13:38.945Z,57.24
2022-09-18T16:16:08.976Z,57.38
2022-09-18T16:18:56.420Z,57.51
2022-09-18T16:21:27.274Z,57.16
2022-09-18T16:24:01.431Z,57.16
2022-09-18T16:26:31.643Z,57.38
2022-09-18T16:29:01.631Z,57.17
2022-09-18T16:31:31.731Z,57.39
2022-09-18T16:34:01.329Z,57.51
2022-09-18T16:36:34.851Z,57.12
2022-09-18T16:39:05.606Z,57.19
2022-09-18T16:41:33.742Z,57.27
2022-09-18T16:44:02.496Z,57.19
2022-09-18T16:46:40.611Z,57.16
2022-09-18T16:49:09.509Z,57.60
2022-09-18T16:51:36.783Z,57.42
2022-09-18T16:54:04.008Z,57.15
2022-09-18T16:56:38.497Z,57.31
2022-09-18T16:59:07.017Z,57.09
2022-09-18T17:01:54.126Z,57.29
2022-09-18T17:04:24.029Z,57.12
2022-09-18T17:06:51.151Z,57.43
2022-09-18T17:09:18.389Z,57.33
2022-09-18T17:11:46.676Z,57.46
2022-09-18T17:14:13.667Z,57.37
2022-09-18T17:16:44.803Z,57.43
2022-09-18T17:19:12.636Z,57.40
2022-09-18T17:21:40.086Z,57.35
2022-09-18T17:24:07.286Z,57.71
2022-09-18T17:26:39.056Z,57.63
2022-09-18T17:29:06.849Z,57.47
2022-09-18T17:31:33.959Z,57.45
2022-09-18T17:34:01.069Z,57.67
2022-09-18T17:36:28.220Z,57.93
2022-09-18T17:38:56.181Z,57.68
2022-09-18T17:41:24.600Z,57.65
2022-09-18T17:43:53.183Z,57.48
2022-09-18T17:46:21.115Z,57.58
2022-09-18T17:48:48.532Z,57.55
2022-09-18T17:51:18.451Z,57.67
2022-09-18T17:53:47.660Z,57.41
2022-09-18T17:56:17.813Z,57.80
2022-09-18T17:58:45.453Z,57.58
2022-09-18T18:01:20.224Z,57.55
2022-09-18T18:03:49.984Z,57.68
2022-09-18T18:06:21.613Z,57.48
2022-09-18T18:08:50.064Z,57.59
2022-09-18T18:11:22.085Z,57.46
2022-09-18T18:13:50.247Z,57.40
2022-09-18T18:16:22.127Z,57.51
2022-09-18T18:18:54.529Z,57.59
2022-09-18T18:21:22.365Z,57.92
2022-09-18T18:23:53.875Z,57.24
2022-09-18T18:26:20.939Z,57.92
2022-09-18T18:28:47.791Z,57.65
2022-09-18T18:31:15.179Z,57.82
2022-09-18T18:33:43.450Z,57.67
2022-09-18T18:36:16.558Z,57.47
2022-09-18T18:38:45.577Z,57.49
2022-09-18T18:41:13.957Z,57.53
2022-09-18T18:43:41.566Z,57.48
2022-09-18T18:46:12.888Z,57.58
2022-09-18T18:48:41.052Z,58.05
2022-09-18T18:51:10.111Z,57.70
2022-09-18T18:53:37.757Z,57.83
2022-09-18T18:56:10.356Z,57.67
2022-09-18T18:58:37.988Z,57.72
2022-09-18T19:01:18.273Z,57.73
2022-09-18T19:03:59.978Z,57.68
2022-09-18T19:06:27.513Z,57.39
2022-09-18T19:09:00.613Z,57.66
2022-09-18T19:11:30.216Z,57.81
2022-09-18T19:13:57.821Z,57.68
2022-09-18T19:16:26.447Z,57.80
2022-09-18T19:19:00.787Z,57.65
2022-09-18T19:21:28.571Z,57.91
2022-09-18T19:23:59.295Z,57.54
2022-09-18T19:26:28.640Z,57.87
2022-09-18T19:29:00.616Z,57.67
2022-09-18T19:31:29.488Z,57.48
2022-09-18T19:33:57.954Z,57.53
2022-09-18T19:36:27.915Z,57.62
2022-09-18T19:39:04.490Z,57.81
2022-09-18T19:41:36.233Z,57.72
2022-09-18T19:44:05.693Z,57.61
2022-09-18T19:46:32.985Z,57.41
2022-09-18T19:49:01.326Z,57.51
2022-09-18T19:51:30.306Z,57.53
2022-09-18T19:53:57.212Z,57.88
2022-09-18T19:56:42.161Z,57.79
2022-09-18T19:59:10.860Z,57.94
2022-09-18T20:01:37.941Z,57.48
2022-09-18T20:04:05.205Z,57.79
2022-09-18T20:06:33.080Z,57.68
2022-09-18T20:09:00.387Z,57.75
2022-09-18T20:11:27.352Z,57.65
2022-09-18T20:13:54.327Z,57.52
2022-09-18T20:16:22.550Z,57.46
2022-09-18T20:18:50.056Z,57.75
2022-09-18T20:21:18.601Z,57.57
2022-09-18T20:23:45.998Z,57.58
2022-09-18T20:26:16.170Z,57.56
2022-09-18T20:28:43.560Z,57.71
2022-09-18T20:31:28.419Z,57.37
2022-09-18T20:34:10.104Z,57.72
2022-09-18T20:36:38.973Z,57.44
2022-09-18T20:39:12.899Z,57.51
2022-09-18T20:41:40.653Z,57.85
2022-09-18T20:44:07.838Z,57.50
2022-09-18T20:46:37.732Z,57.87
2022-09-18T20:49:08.770Z,57.65
2022-09-18T20:51:36.018Z,57.62
2022-09-18T20:54:08.969Z,57.51
2022-09-18T20:56:42.126Z,57.97
2022-09-18T20:59:14.023Z,57.58
2022-09-18T21:01:45.358Z,57.59
2022-09-18T21:04:21.312Z,57.74
2022-09-18T21:07:07.028Z,57.71
2022-09-18T21:09:36.985Z,58.06
2022-09-18T21:12:12.689Z,57.68
2022-09-18T21:14:42.108Z,57.75
2022-09-18T21:17:17.355Z,57.62
2022-09-18T21:19:47.482Z,57.65
2022-09-18T21:22:18.784Z,57.57
2022-09-18T21:25:08.163Z,57.79
2022-09-18T21:27:35.058Z,57.62
2022-09-18T21:30:17.705Z,57.40
2022-09-18T21:32:54.913Z,57.81
2022-09-18T21:35:34.122Z,57.95
2022-09-18T21:38:01.107Z,58.01
2022-09-18T21:40:31.019Z,57.86
2022-09-18T21:43:06.808Z,57.51
2022-09-18T21:45:38.630Z,57.79
2022-09-18T21:48:18.626Z,57.70
2022-09-18T21:50:47.398Z,57.80
2022-09-18T21:53:19.409Z,58.10
2022-09-18T21:55:47.869Z,57.75
2022-09-18T21:58:14.867Z,57.61
2022-09-18T22:00:43.531Z,57.71
2022-09-18T22:03:14.629Z,57.95
2022-09-18T22:05:45.821Z,58.00
2022-09-18T22:08:13.218Z,57.98
2022-09-18T22:10:47.334Z,58.05
2022-09-18T22:13:22.404Z,57.93
2022-09-18T22:16:01.052Z,58.03
2022-09-18T22:18:30.558Z,57.87
2022-09-18T22:21:04.352Z,57.94
2022-09-18T22:23:38.693Z,58.06
2022-09-18T22:26:06.927Z,57.65
2022-09-18T22:28:35.755Z,57.82
2022-09-18T22:31:08.218Z,58.08
2022-09-18T22:33:52.174Z,57.95
2022-09-18T22:36:19.195Z,57.87
2022-09-18T22:38:49.259Z,57.96
2022-09-18T22:41:19.344Z,57.91
2022-09-18T22:43:46.554Z,57.88
2022-09-18T22:46:16.775Z,57.47
2022-09-18T22:48:44.194Z,57.54
2022-09-18T22:51:29.011Z,57.89
2022-09-18T22:54:11.602Z,57.66
2022-09-18T22:56:44.748Z,57.88
2022-09-18T22:59:19.576Z,58.22
2022-09-18T23:02:12.753Z,58.08
2022-09-18T23:04:50.764Z,57.91
2022-09-18T23:07:22.544Z,57.92
2022-09-18T23:09:52.938Z,58.01
2022-09-18T23:12:20.004Z,58.15
2022-09-18T23:14:50.921Z,58.02
2022-09-18T23:17:18.825Z,57.88
2022-09-18T23:19:46.124Z,58.00
2022-09-18T23:22:17.291Z,58.23
2022-09-18T23:24:44.230Z,57.78
2022-09-18T23:27:12.547Z,58.02
2022-09-18T23:29:49.707Z,58.07
2022-09-18T23:32:18.701Z,58.22
2022-09-18T23:34:49.821Z,58.39
2022-09-18T23:37:20.987Z,57.87
2022-09-18T23:39:51.197Z,58.18
2022-09-18T23:42:20.125Z,57.99
2022-09-18T23:44:48.761Z,57.87
2022-09-18T23:47:15.881Z,57.82
2022-09-18T23:49:50.184Z,58.31
2022-09-18T23:52:18.540Z,57.96
2022-09-18T23:54:45.436Z,58.12
2022-09-18T23:57:12.316Z,57.91
